createdAt,value
2018-03-25T00:02:14.969Z,18.73
2018-03-25T00:04:42.533Z,20.33
2018-03-25T00:07:10.949Z,20.33
2018-03-25T00:09:38.557Z,23.10
2018-03-25T00:12:06.185Z,24.77
2018-03-25T00:14:33.769Z,21.80
2018-03-25T00:17:01.312Z,23.10
2018-03-25T00:19:29.182Z,24.50
2018-03-25T00:21:56.772Z,21.80
2018-03-25T00:24:24.332Z,19.77
2018-03-25T00:26:51.888Z,20.27
2018-03-25T00:29:19.586Z,18.87
2018-03-25T00:31:47.488Z,23.00
2018-03-25T00:34:15.574Z,21.80
2018-03-25T00:36:43.100Z,24.70
2018-03-25T00:39:10.662Z,22.77
2018-03-25T00:41:38.251Z,20.60
2018-03-25T00:44:06.292Z,19.00
2018-03-25T00:46:33.857Z,27.23
2018-03-25T00:49:01.408Z,20.17
2018-03-25T00:51:28.969Z,19.80
2018-03-25T00:53:57.357Z,22.90
2018-03-25T00:56:24.870Z,16.67
2018-03-25T00:58:52.783Z,20.17
2018-03-25T01:01:20.309Z,19.07
2018-03-25T01:03:48.252Z,17.00
2018-03-25T01:06:15.734Z,24.10
2018-03-25T01:08:43.723Z,22.30
2018-03-25T01:11:11.673Z,23.50
2018-03-25T01:13:39.240Z,20.23
2018-03-25T01:16:11.238Z,20.20
2018-03-25T01:18:38.757Z,18.23
2018-03-25T01:21:06.257Z,17.97
2018-03-25T01:23:34.018Z,21.43
2018-03-25T01:26:01.933Z,20.93
2018-03-25T01:28:29.435Z,21.20
2018-03-25T01:30:57.352Z,18.57
2018-03-25T01:33:24.829Z,23.30
2018-03-25T01:35:52.359Z,21.67
2018-03-25T01:38:19.892Z,17.80
2018-03-25T01:40:47.401Z,16.90
2018-03-25T01:43:14.930Z,18.60
2018-03-25T01:45:42.826Z,22.90
2018-03-25T01:48:10.497Z,25.13
2018-03-25T01:50:38.023Z,22.83
2018-03-25T01:53:05.892Z,20.70
2018-03-25T01:55:33.810Z,21.57
2018-03-25T01:58:01.351Z,19.47
2018-03-25T02:00:29.241Z,21.00
2018-03-25T02:02:56.765Z,22.07
2018-03-25T02:05:24.652Z,20.47
2018-03-25T02:07:52.636Z,20.73
2018-03-25T02:10:20.168Z,17.07
2018-03-25T02:12:48.083Z,18.03
2018-03-25T02:15:15.628Z,21.50
2018-03-25T02:17:43.197Z,18.47
2018-03-25T02:20:10.722Z,19.77
2018-03-25T02:22:38.351Z,22.70
2018-03-25T02:25:05.884Z,20.00
2018-03-25T02:27:33.801Z,19.83
2018-03-25T02:30:01.368Z,20.20
2018-03-25T02:32:28.934Z,19.63
2018-03-25T02:34:56.545Z,19.60
2018-03-25T02:37:24.385Z,21.67
2018-03-25T02:39:51.895Z,21.80
2018-03-25T02:42:19.394Z,19.20
2018-03-25T02:44:46.887Z,22.40
2018-03-25T02:47:14.807Z,19.10
2018-03-25T02:49:42.347Z,24.77
2018-03-25T02:52:10.227Z,20.50
2018-03-25T02:54:37.737Z,22.47
2018-03-25T02:57:05.244Z,18.57
2018-03-25T02:59:33.070Z,17.93
2018-03-25T03:02:00.677Z,21.70
2018-03-25T03:04:28.634Z,22.73
2018-03-25T03:06:56.559Z,22.43
2018-03-25T03:09:24.055Z,21.70
2018-03-25T03:11:52.662Z,24.33
2018-03-25T03:14:20.690Z,21.60
2018-03-25T03:16:48.229Z,23.33
2018-03-25T03:19:15.846Z,22.07
2018-03-25T03:21:43.591Z,22.10
2018-03-25T03:24:11.087Z,15.17
2018-03-25T03:26:38.679Z,15.07
2018-03-25T03:29:06.175Z,21.47
2018-03-25T03:31:33.691Z,15.23
2018-03-25T03:34:01.594Z,19.70
2018-03-25T03:36:29.104Z,22.27
2018-03-25T03:38:57.224Z,24.40
2018-03-25T03:41:24.754Z,22.07
2018-03-25T03:43:52.732Z,24.00
2018-03-25T03:46:20.653Z,22.03
2018-03-25T03:48:48.982Z,22.40
2018-03-25T03:51:16.491Z,17.93
2018-03-25T03:53:43.993Z,17.40
2018-03-25T03:56:11.468Z,21.20
2018-03-25T03:58:39.345Z,19.30
2018-03-25T04:01:07.221Z,24.03
2018-03-25T04:03:35.141Z,21.33
2018-03-25T04:06:02.719Z,18.83
2018-03-25T04:08:30.260Z,19.30
2018-03-25T04:10:57.785Z,23.23
2018-03-25T04:13:25.679Z,18.70
2018-03-25T04:15:53.202Z,18.30
2018-03-25T04:18:21.134Z,18.60
2018-03-25T04:20:48.678Z,16.40
2018-03-25T04:23:16.181Z,21.73
2018-03-25T04:25:43.669Z,18.03
2018-03-25T04:28:11.603Z,22.43
2018-03-25T04:30:39.109Z,19.57
2018-03-25T04:33:07.032Z,24.97
2018-03-25T04:35:34.588Z,22.80
2018-03-25T04:38:02.092Z,19.07
2018-03-25T04:40:30.043Z,18.77
2018-03-25T04:42:57.681Z,24.57
2018-03-25T04:45:25.210Z,18.03
2018-03-25T04:47:53.171Z,18.97
2018-03-25T04:50:20.705Z,16.60
2018-03-25T04:52:48.607Z,20.80
2018-03-25T04:55:16.300Z,24.03
2018-03-25T04:57:43.804Z,20.53
2018-03-25T05:00:11.345Z,20.20
2018-03-25T05:02:38.934Z,22.27
2018-03-25T05:05:06.428Z,16.83
2018-03-25T05:07:33.937Z,20.70
2018-03-25T05:10:01.451Z,19.50
2018-03-25T05:12:28.943Z,18.37
2018-03-25T05:14:56.524Z,22.40
2018-03-25T05:17:24.152Z,23.90
2018-03-25T05:19:52.158Z,21.13
2018-03-25T05:22:19.633Z,19.57
2018-03-25T05:24:47.528Z,20.60
2018-03-25T05:27:15.167Z,19.80
2018-03-25T05:29:42.668Z,22.33
2018-03-25T05:32:10.227Z,18.27
2018-03-25T05:34:37.786Z,19.80
2018-03-25T05:37:05.312Z,16.37
2018-03-25T05:39:32.809Z,24.17
2018-03-25T05:42:00.313Z,25.90
2018-03-25T05:44:28.253Z,22.47
2018-03-25T05:46:55.885Z,17.77
2018-03-25T05:49:23.403Z,21.53
2018-03-25T05:51:51.483Z,22.30
2018-03-25T05:54:19.395Z,21.70
2018-03-25T05:56:46.952Z,19.43
2018-03-25T05:59:14.600Z,22.20
2018-03-25T06:01:42.195Z,16.90
2018-03-25T06:04:09.754Z,20.80
2018-03-25T06:06:37.579Z,23.53
2018-03-25T06:09:05.486Z,20.80
2018-03-25T06:11:33.020Z,20.70
2018-03-25T06:14:01.118Z,21.63
2018-03-25T06:16:28.710Z,22.10
2018-03-25T06:18:56.213Z,19.20
2018-03-25T06:21:24.243Z,20.30
2018-03-25T06:23:51.792Z,22.13
2018-03-25T06:26:19.312Z,25.17
2018-03-25T06:28:47.281Z,22.07
2018-03-25T06:31:14.996Z,25.40
2018-03-25T06:33:42.526Z,21.40
2018-03-25T06:36:10.081Z,23.93
2018-03-25T06:38:38.012Z,25.17
2018-03-25T06:41:05.543Z,22.50
2018-03-25T06:43:33.490Z,25.57
2018-03-25T06:46:01.438Z,23.30
2018-03-25T06:48:29.860Z,23.63
2018-03-25T06:50:57.834Z,24.20
2018-03-25T06:53:25.823Z,23.87
2018-03-25T06:55:53.348Z,25.90
2018-03-25T06:58:20.925Z,21.03
2018-03-25T07:00:48.504Z,23.00
2018-03-25T07:03:16.427Z,25.77
2018-03-25T07:05:44.019Z,32.27
2018-03-25T07:08:11.937Z,20.60
2018-03-25T07:10:39.446Z,27.80
2018-03-25T07:13:06.942Z,24.07
2018-03-25T07:15:34.496Z,27.20
2018-03-25T07:18:02.443Z,32.13
2018-03-25T07:20:29.942Z,28.90
2018-03-25T07:22:57.853Z,26.07
2018-03-25T07:25:25.373Z,21.87
2018-03-25T07:27:53.421Z,22.43
2018-03-25T07:30:21.064Z,23.30
2018-03-25T07:32:48.559Z,24.60
2018-03-25T07:35:16.512Z,25.73
2018-03-25T07:37:44.036Z,24.93
2018-03-25T07:40:11.518Z,28.43
2018-03-25T07:42:40.003Z,25.93
2018-03-25T07:45:07.564Z,28.33
2018-03-25T07:47:35.064Z,30.40
2018-03-25T07:50:02.765Z,27.20
2018-03-25T07:52:30.318Z,22.30
2018-03-25T07:54:58.314Z,26.40
2018-03-25T07:57:26.788Z,26.80
2018-03-25T07:59:54.309Z,28.07
2018-03-25T08:02:21.914Z,31.30
2018-03-25T08:04:49.519Z,28.03
2018-03-25T08:07:17.092Z,26.60
2018-03-25T08:09:44.626Z,27.73
2018-03-25T08:12:12.126Z,23.97
2018-03-25T08:14:39.690Z,27.50
2018-03-25T08:17:07.290Z,27.30
2018-03-25T08:19:35.259Z,27.80
2018-03-25T08:22:03.327Z,26.77
2018-03-25T08:24:31.327Z,30.53
2018-03-25T08:26:58.847Z,29.67
2018-03-25T08:29:26.421Z,33.87
2018-03-25T08:31:54.870Z,32.23
2018-03-25T08:34:22.419Z,31.37
2018-03-25T08:36:49.967Z,27.20
2018-03-25T08:39:17.538Z,31.50
2018-03-25T08:41:45.040Z,30.07
2018-03-25T08:44:12.587Z,31.00
2018-03-25T08:46:40.138Z,28.70
2018-03-25T08:49:07.657Z,26.30
2018-03-25T08:51:35.640Z,27.27
2018-03-25T08:54:03.532Z,26.00
2018-03-25T08:56:31.057Z,27.70
2018-03-25T08:58:58.568Z,26.90
2018-03-25T09:01:26.062Z,27.70
2018-03-25T09:03:53.561Z,31.87
2018-03-25T09:06:21.554Z,30.00
2018-03-25T09:08:49.218Z,24.10
2018-03-25T09:11:16.755Z,32.67
2018-03-25T09:13:44.729Z,32.17
2018-03-25T09:16:12.295Z,33.33
2018-03-25T09:18:40.282Z,31.90
2018-03-25T09:21:08.177Z,30.67
2018-03-25T09:23:35.750Z,30.97
2018-03-25T09:26:03.257Z,26.23
2018-03-25T09:28:30.799Z,30.57
2018-03-25T09:30:59.299Z,27.27
2018-03-25T09:33:26.876Z,31.30
2018-03-25T09:35:54.471Z,33.37
2018-03-25T09:38:23.537Z,31.47
2018-03-25T09:40:51.063Z,33.83
2018-03-25T09:43:23.309Z,27.70
2018-03-25T09:45:50.884Z,33.40
2018-03-25T09:48:18.761Z,28.03
2018-03-25T09:50:46.310Z,27.97
2018-03-25T09:53:13.810Z,34.40
2018-03-25T09:55:41.310Z,28.53
2018-03-25T09:58:09.221Z,26.77
2018-03-25T10:00:36.770Z,33.70
2018-03-25T10:03:24.164Z,29.00
2018-03-25T10:05:52.274Z,33.03
2018-03-25T10:08:19.803Z,31.10
2018-03-25T10:10:47.392Z,31.43
2018-03-25T10:13:14.894Z,28.77
2018-03-25T10:15:42.482Z,28.50
2018-03-25T10:18:10.239Z,30.40
2018-03-25T10:20:37.928Z,28.50
2018-03-25T10:23:06.671Z,28.23
2018-03-25T10:25:36.123Z,31.07
2018-03-25T10:28:04.880Z,28.03
2018-03-25T10:30:34.967Z,28.80
2018-03-25T10:33:02.550Z,26.70
2018-03-25T10:35:30.992Z,32.47
2018-03-25T10:37:59.635Z,27.83
2018-03-25T10:40:27.280Z,30.90
2018-03-25T10:42:54.780Z,28.53
2018-03-25T10:45:22.339Z,28.37
2018-03-25T10:47:49.866Z,27.77
2018-03-25T10:50:17.440Z,28.00
2018-03-25T10:52:44.989Z,30.23
2018-03-25T10:55:12.569Z,28.27
2018-03-25T10:57:40.193Z,28.80
2018-03-25T11:00:08.185Z,30.20
2018-03-25T11:02:35.776Z,29.70
2018-03-25T11:05:03.304Z,26.00
2018-03-25T11:07:30.997Z,29.20
2018-03-25T11:09:58.636Z,29.13
2018-03-25T11:12:27.127Z,29.20
2018-03-25T11:14:54.742Z,28.77
2018-03-25T11:17:22.313Z,29.40
2018-03-25T11:19:49.827Z,29.80
2018-03-25T11:22:17.390Z,30.47
2018-03-25T11:24:46.093Z,27.73
2018-03-25T11:27:13.634Z,25.90
2018-03-25T11:29:41.585Z,27.90
2018-03-25T11:32:09.443Z,34.60
2018-03-25T11:34:37.792Z,29.60
2018-03-25T11:37:05.290Z,30.17
2018-03-25T11:39:32.860Z,29.67
2018-03-25T11:42:00.395Z,27.40
2018-03-25T11:44:29.594Z,29.30
2018-03-25T11:46:57.200Z,23.50
2018-03-25T11:49:24.739Z,29.03
2018-03-25T11:51:52.300Z,31.40
2018-03-25T11:54:19.802Z,28.07
2018-03-25T11:56:47.740Z,27.60
2018-03-25T11:59:15.283Z,25.20
2018-03-25T12:01:42.843Z,26.10
2018-03-25T12:04:10.479Z,26.33
2018-03-25T12:06:38.036Z,28.17
2018-03-25T12:09:05.941Z,24.73
2018-03-25T12:11:33.453Z,25.40
2018-03-25T12:14:01.387Z,27.40
2018-03-25T12:16:28.929Z,25.50
2018-03-25T12:18:56.462Z,25.70
2018-03-25T12:21:24.801Z,25.47
2018-03-25T12:23:52.467Z,28.27
2018-03-25T12:26:20.042Z,23.50
2018-03-25T12:28:47.565Z,28.03
2018-03-25T12:31:15.103Z,24.63
2018-03-25T12:33:43.044Z,25.93
2018-03-25T12:36:10.564Z,24.47
2018-03-25T12:38:38.112Z,23.33
2018-03-25T12:41:06.112Z,24.03
2018-03-25T12:43:33.662Z,25.20
2018-03-25T12:46:01.773Z,22.30
2018-03-25T12:48:29.413Z,27.10
2018-03-25T12:50:57.632Z,25.63
2018-03-25T12:53:25.168Z,24.30
2018-03-25T12:55:52.741Z,25.37
2018-03-25T12:58:20.338Z,25.60
2018-03-25T13:00:48.157Z,23.13
2018-03-25T13:03:16.542Z,23.47
2018-03-25T13:05:44.112Z,22.10
2018-03-25T13:08:11.657Z,22.30
2018-03-25T13:10:39.247Z,25.27
2018-03-25T13:13:06.816Z,25.90
2018-03-25T13:15:34.341Z,25.20
2018-03-25T13:18:02.400Z,23.80
2018-03-25T13:20:29.969Z,27.47
2018-03-25T13:22:57.704Z,22.57
2018-03-25T13:25:25.220Z,22.87
2018-03-25T13:27:52.796Z,24.13
2018-03-25T13:30:21.215Z,26.03
2018-03-25T13:32:48.809Z,24.87
2018-03-25T13:35:16.368Z,24.23
2018-03-25T13:37:44.611Z,29.80
2018-03-25T13:40:12.426Z,25.40
2018-03-25T13:42:40.408Z,28.00
2018-03-25T13:45:08.322Z,24.03
2018-03-25T13:47:35.936Z,23.90
2018-03-25T13:50:03.508Z,22.30
2018-03-25T13:52:31.149Z,25.10
2018-03-25T13:54:58.667Z,26.40
2018-03-25T13:57:26.325Z,24.90
2018-03-25T13:59:53.811Z,24.37
2018-03-25T14:02:21.327Z,26.50
2018-03-25T14:04:49.314Z,24.67
2018-03-25T14:07:17.291Z,23.10
2018-03-25T14:09:44.826Z,25.10
2018-03-25T14:12:12.343Z,26.37
2018-03-25T14:14:39.913Z,24.53
2018-03-25T14:17:07.487Z,23.90
2018-03-25T14:19:34.999Z,28.30
2018-03-25T14:22:03.051Z,28.03
2018-03-25T14:24:30.562Z,23.70
2018-03-25T14:26:58.330Z,25.53
2018-03-25T14:29:25.861Z,25.73
2018-03-25T14:31:54.064Z,26.70
2018-03-25T14:34:21.638Z,25.30
2018-03-25T14:36:49.248Z,27.77
2018-03-25T14:39:17.289Z,21.60
2018-03-25T14:41:45.189Z,22.03
2018-03-25T14:44:12.755Z,26.60
2018-03-25T14:46:40.487Z,26.27
2018-03-25T14:49:08.417Z,24.07
2018-03-25T14:51:36.115Z,23.60
2018-03-25T14:54:09.326Z,24.20
2018-03-25T14:56:36.909Z,23.00
2018-03-25T14:59:05.170Z,22.57
2018-03-25T15:01:32.908Z,25.03
2018-03-25T15:04:00.938Z,22.60
2018-03-25T15:06:28.522Z,24.30
2018-03-25T15:08:56.096Z,25.80
2018-03-25T15:11:23.644Z,24.03
2018-03-25T15:13:51.282Z,24.43
2018-03-25T15:16:19.399Z,26.20
2018-03-25T15:18:47.095Z,22.80
2018-03-25T15:21:15.045Z,23.73
2018-03-25T15:23:42.641Z,23.10
2018-03-25T15:26:11.844Z,22.07
2018-03-25T15:28:39.439Z,24.63
2018-03-25T15:31:07.000Z,24.20
2018-03-25T15:33:34.541Z,26.40
2018-03-25T15:36:02.042Z,25.90
2018-03-25T15:38:29.548Z,22.87
2018-03-25T15:40:57.477Z,24.10
2018-03-25T15:43:24.982Z,25.50
2018-03-25T15:45:52.487Z,23.40
2018-03-25T15:48:21.940Z,24.30
2018-03-25T15:50:49.843Z,24.13
2018-03-25T15:53:17.369Z,21.53
2018-03-25T15:55:44.884Z,26.80
2018-03-25T15:58:12.438Z,27.03
2018-03-25T16:00:40.094Z,24.33
2018-03-25T16:03:07.631Z,28.07
2018-03-25T16:05:35.581Z,27.40
2018-03-25T16:08:03.380Z,23.10
2018-03-25T16:10:31.315Z,26.30
2018-03-25T16:12:58.866Z,25.67
2018-03-25T16:15:26.552Z,24.57
2018-03-25T16:17:54.074Z,25.90
2018-03-25T16:20:21.583Z,25.33
2018-03-25T16:22:49.125Z,26.30
2018-03-25T16:25:16.609Z,25.70
2018-03-25T16:27:44.237Z,29.27
2018-03-25T16:30:13.918Z,26.30
2018-03-25T16:32:43.036Z,27.43
2018-03-25T16:35:10.741Z,25.27
2018-03-25T16:37:38.291Z,24.87
2018-03-25T16:40:05.806Z,30.73
2018-03-25T16:42:33.774Z,26.20
2018-03-25T16:45:01.354Z,23.63
2018-03-25T16:47:29.261Z,28.37
2018-03-25T16:49:56.810Z,24.53
2018-03-25T16:52:24.340Z,28.87
2018-03-25T16:54:52.271Z,25.03
2018-03-25T16:57:19.880Z,22.23
2018-03-25T16:59:47.813Z,20.90
2018-03-25T17:02:16.935Z,25.20
2018-03-25T17:04:44.952Z,24.30
2018-03-25T17:07:12.881Z,24.20
2018-03-25T17:09:40.479Z,26.67
2018-03-25T17:12:08.071Z,25.37
2018-03-25T17:14:35.609Z,30.10
2018-03-25T17:17:04.358Z,26.97
2018-03-25T17:19:31.973Z,32.97
2018-03-25T17:21:59.820Z,26.10
2018-03-25T17:24:27.465Z,26.17
2018-03-25T17:26:55.108Z,26.63
2018-03-25T17:29:22.665Z,27.10
2018-03-25T17:31:50.213Z,25.60
2018-03-25T17:34:17.827Z,25.50
2018-03-25T17:36:45.461Z,25.93
2018-03-25T17:39:13.004Z,25.73
2018-03-25T17:41:40.657Z,26.30
2018-03-25T17:44:08.699Z,29.87
2018-03-25T17:46:36.225Z,29.50
2018-03-25T17:49:03.769Z,31.77
2018-03-25T17:51:31.276Z,29.90
2018-03-25T17:53:58.892Z,35.37
2018-03-25T17:56:26.556Z,31.20
2018-03-25T17:58:54.926Z,29.60
2018-03-25T18:01:22.448Z,30.60
2018-03-25T18:03:50.012Z,34.10
2018-03-25T18:06:17.584Z,30.70
2018-03-25T18:08:45.201Z,31.17
2018-03-25T18:11:13.146Z,24.73
2018-03-25T18:13:40.976Z,29.13
2018-03-25T18:16:08.632Z,27.43
2018-03-25T18:18:36.211Z,28.60
2018-03-25T18:21:04.240Z,29.23
2018-03-25T18:23:32.494Z,34.90
2018-03-25T18:26:00.183Z,32.90
2018-03-25T18:28:27.757Z,25.80
2018-03-25T18:30:57.663Z,29.00
2018-03-25T18:33:25.289Z,31.10
2018-03-25T18:35:53.733Z,36.33
2018-03-25T18:38:21.609Z,30.00
2018-03-25T18:40:50.384Z,29.43
2018-03-25T18:43:18.385Z,27.43
2018-03-25T18:45:46.029Z,31.50
2018-03-25T18:48:14.683Z,27.20
2018-03-25T18:50:42.251Z,28.80
2018-03-25T18:53:10.770Z,23.47
2018-03-25T18:55:38.728Z,22.90
2018-03-25T18:58:06.753Z,25.13
2018-03-25T19:00:34.416Z,24.00
2018-03-25T19:03:01.985Z,21.87
2018-03-25T19:05:29.793Z,21.30
2018-03-25T19:07:57.855Z,23.00
2018-03-25T19:10:25.582Z,22.60
2018-03-25T19:12:53.244Z,22.20
2018-03-25T19:15:20.814Z,23.00
2018-03-25T19:17:48.499Z,30.07
2018-03-25T19:20:16.089Z,28.20
2018-03-25T19:22:43.808Z,23.40
2018-03-25T19:25:11.409Z,24.30
2018-03-25T19:27:39.104Z,24.27
2018-03-25T19:30:06.803Z,31.23
2018-03-25T19:32:34.483Z,31.53
2018-03-25T19:35:02.266Z,29.43
2018-03-25T19:37:31.011Z,28.50
2018-03-25T19:39:58.906Z,26.67
2018-03-25T19:42:31.495Z,28.33
2018-03-25T19:45:00.777Z,25.13
2018-03-25T19:47:28.487Z,29.80
2018-03-25T19:49:56.117Z,28.07
2018-03-25T19:52:25.383Z,25.87
2018-03-25T19:54:53.101Z,24.70
2018-03-25T19:57:20.761Z,20.77
2018-03-25T19:59:48.978Z,20.30
2018-03-25T20:02:18.008Z,24.87
2018-03-25T20:04:46.703Z,25.10
2018-03-25T20:07:15.570Z,26.97
2018-03-25T20:09:44.903Z,22.17
2018-03-25T20:12:13.722Z,23.33
2018-03-25T20:14:42.241Z,27.40
2018-03-25T20:17:10.958Z,27.03
2018-03-25T20:19:38.978Z,21.13
2018-03-25T20:22:06.606Z,25.23
2018-03-25T20:24:35.076Z,24.23
2018-03-25T20:27:05.035Z,24.20
2018-03-25T20:29:32.611Z,25.43
2018-03-25T20:32:00.993Z,21.77
2018-03-25T20:34:28.881Z,22.43
2018-03-25T20:36:56.612Z,20.23
2018-03-25T20:39:24.190Z,22.63
2018-03-25T20:41:51.869Z,23.07
2018-03-25T20:44:19.437Z,24.00
2018-03-25T20:46:47.091Z,22.20
2018-03-25T20:49:15.298Z,25.23
2018-03-25T20:51:42.955Z,24.83
2018-03-25T20:54:12.084Z,21.37
2018-03-25T20:56:40.972Z,24.47
2018-03-25T20:59:08.771Z,21.30
2018-03-25T21:01:36.990Z,23.20
2018-03-25T21:04:04.812Z,21.90
2018-03-25T21:06:32.899Z,22.23
2018-03-25T21:09:00.890Z,22.70
2018-03-25T21:11:28.605Z,22.80
2018-03-25T21:13:56.350Z,22.50
2018-03-25T21:16:24.004Z,25.27
2018-03-25T21:18:51.861Z,23.57
2018-03-25T21:21:19.557Z,22.10
2018-03-25T21:23:48.335Z,22.67
2018-03-25T21:26:15.988Z,27.97
2018-03-25T21:28:43.520Z,27.77
2018-03-25T21:31:11.014Z,26.27
2018-03-25T21:33:38.553Z,24.67
2018-03-25T21:36:06.533Z,21.67
2018-03-25T21:38:34.438Z,25.30
2018-03-25T21:41:01.959Z,24.73
2018-03-25T21:43:29.890Z,25.00
2018-03-25T21:45:57.414Z,27.07
2018-03-25T21:48:24.946Z,22.83
2018-03-25T21:50:52.463Z,22.30
2018-03-25T21:53:19.952Z,25.97
2018-03-25T21:55:47.431Z,28.90
2018-03-25T21:58:15.360Z,24.47
2018-03-25T22:00:42.851Z,24.60
2018-03-25T22:03:10.427Z,24.53
2018-03-25T22:05:37.910Z,21.30
2018-03-25T22:08:05.801Z,26.50
2018-03-25T22:10:33.290Z,26.40
2018-03-25T22:13:00.763Z,25.50
2018-03-25T22:15:28.225Z,25.00
2018-03-25T22:17:56.994Z,28.30
2018-03-25T22:20:24.507Z,25.27
2018-03-25T22:22:51.957Z,28.53
2018-03-25T22:25:19.435Z,27.30
2018-03-25T22:27:47.013Z,25.60
2018-03-25T22:30:14.899Z,29.00
2018-03-25T22:32:42.364Z,28.60
2018-03-25T22:35:09.888Z,27.97
2018-03-25T22:37:37.374Z,27.83
2018-03-25T22:40:05.326Z,26.00
2018-03-25T22:42:32.774Z,26.87
2018-03-25T22:45:00.242Z,31.47
2018-03-25T22:47:27.794Z,27.03
2018-03-25T22:49:55.275Z,22.90
2018-03-25T22:52:22.730Z,24.10
2018-03-25T22:54:52.300Z,29.87
2018-03-25T22:57:19.767Z,26.63
2018-03-25T22:59:47.226Z,29.20
2018-03-25T23:02:14.697Z,24.77
2018-03-25T23:04:42.162Z,25.33
2018-03-25T23:07:09.666Z,25.57
2018-03-25T23:09:37.522Z,27.77
2018-03-25T23:12:04.999Z,29.20
2018-03-25T23:14:32.881Z,25.50
2018-03-25T23:17:00.735Z,29.17
2018-03-25T23:19:28.295Z,32.03
2018-03-25T23:21:55.763Z,26.10
2018-03-25T23:24:23.631Z,33.10
2018-03-25T23:26:51.172Z,32.40
2018-03-25T23:29:18.656Z,32.33
2018-03-25T23:31:46.225Z,31.37
2018-03-25T23:34:13.677Z,32.90
2018-03-25T23:36:41.335Z,32.73
2018-03-25T23:39:08.817Z,33.67
2018-03-25T23:41:36.279Z,35.50
2018-03-25T23:44:04.127Z,32.13
2018-03-25T23:46:31.606Z,34.77
2018-03-25T23:48:59.078Z,36.70
2018-03-25T23:51:26.954Z,36.57
2018-03-25T23:53:54.816Z,34.50
2018-03-25T23:56:22.688Z,29.63
2018-03-25T23:58:50.149Z,28.53
